createdAt,value
2022-07-31T00:00:19.484Z,63.40
2022-07-31T00:02:47.029Z,64.22
2022-07-31T00:05:14.479Z,64.70
2022-07-31T00:07:41.949Z,64.51
2022-07-31T00:10:09.609Z,64.97
2022-07-31T00:12:36.945Z,64.36
2022-07-31T00:15:05.659Z,63.81
2022-07-31T00:17:33.439Z,63.09
2022-07-31T00:20:00.870Z,63.71
2022-07-31T00:22:28.275Z,63.04
2022-07-31T00:24:55.643Z,62.13
2022-07-31T00:27:23.737Z,61.62
2022-07-31T00:29:51.601Z,61.55
2022-07-31T00:32:19.022Z,62.94
2022-07-31T00:34:46.361Z,63.30
2022-07-31T00:37:14.036Z,63.41
2022-07-31T00:39:43.244Z,62.65
2022-07-31T00:42:36.847Z,63.58
2022-07-31T00:45:04.951Z,63.96
2022-07-31T00:47:33.468Z,63.92
2022-07-31T00:50:01.219Z,63.05
2022-07-31T00:52:28.507Z,63.28
2022-07-31T00:54:55.908Z,63.02
2022-07-31T00:57:23.247Z,64.10
2022-07-31T00:59:50.666Z,64.46
2022-07-31T01:02:18.085Z,64.68
2022-07-31T01:04:45.837Z,64.68
2022-07-31T01:07:13.348Z,65.04
2022-07-31T01:09:40.784Z,65.52
2022-07-31T01:12:16.814Z,65.15
2022-07-31T01:14:48.185Z,65.70
2022-07-31T01:17:16.291Z,65.35
2022-07-31T01:19:44.828Z,64.78
2022-07-31T01:22:43.887Z,64.66
2022-07-31T01:25:23.618Z,64.88
2022-07-31T01:28:15.240Z,64.60
2022-07-31T01:31:05.100Z,63.88
2022-07-31T01:33:44.823Z,63.18
2022-07-31T01:36:16.653Z,62.97
2022-07-31T01:38:45.973Z,63.41
2022-07-31T01:41:13.966Z,63.55
2022-07-31T01:43:42.282Z,63.32
2022-07-31T01:46:12.995Z,64.59
2022-07-31T01:48:40.296Z,63.54
2022-07-31T01:51:09.038Z,62.64
2022-07-31T01:53:36.539Z,62.26
2022-07-31T01:56:04.538Z,61.39
2022-07-31T01:58:38.109Z,61.92
2022-07-31T02:01:11.566Z,59.32
2022-07-31T02:03:44.086Z,59.15
2022-07-31T02:06:15.700Z,58.38
2022-07-31T02:08:46.626Z,59.01
2022-07-31T02:11:16.162Z,57.40
2022-07-31T02:13:44.010Z,57.74
2022-07-31T02:16:12.060Z,58.22
2022-07-31T02:18:39.511Z,56.63
2022-07-31T02:21:15.529Z,56.82
2022-07-31T02:23:42.870Z,56.45
2022-07-31T02:26:10.200Z,56.38
2022-07-31T02:28:38.457Z,56.96
2022-07-31T02:31:06.807Z,54.59
2022-07-31T02:33:34.270Z,54.44
2022-07-31T02:36:01.614Z,55.74
2022-07-31T02:38:30.428Z,54.54
2022-07-31T02:40:59.156Z,55.14
2022-07-31T02:43:28.787Z,53.97
2022-07-31T02:45:57.472Z,53.17
2022-07-31T02:48:25.924Z,53.74
2022-07-31T02:50:54.934Z,52.17
2022-07-31T02:53:22.291Z,53.53
2022-07-31T02:55:53.719Z,52.17
2022-07-31T02:58:21.433Z,52.58
2022-07-31T03:00:49.017Z,53.50
2022-07-31T03:03:17.896Z,52.84
2022-07-31T03:05:45.411Z,53.21
2022-07-31T03:08:13.700Z,53.34
2022-07-31T03:10:43.859Z,53.08
2022-07-31T03:13:11.509Z,53.70
2022-07-31T03:15:39.903Z,53.75
2022-07-31T03:18:11.208Z,54.38
2022-07-31T03:20:43.040Z,54.87
2022-07-31T03:23:12.669Z,54.62
2022-07-31T03:25:50.826Z,55.58
2022-07-31T03:28:21.788Z,54.89
2022-07-31T03:30:51.353Z,54.38
2022-07-31T03:33:23.025Z,55.18
2022-07-31T03:35:50.831Z,54.43
2022-07-31T03:38:39.091Z,54.31
2022-07-31T03:41:06.403Z,53.93
2022-07-31T03:43:43.698Z,54.02
2022-07-31T03:46:17.114Z,53.75
2022-07-31T03:48:44.953Z,54.01
2022-07-31T03:51:13.457Z,53.82
2022-07-31T03:53:41.569Z,53.76
2022-07-31T03:56:10.707Z,53.88
2022-07-31T03:58:38.617Z,54.11
2022-07-31T04:01:10.434Z,54.00
2022-07-31T04:03:39.716Z,53.97
2022-07-31T04:06:36.006Z,53.91
2022-07-31T04:09:07.872Z,53.50
2022-07-31T04:11:43.515Z,53.17
2022-07-31T04:14:11.842Z,52.76
2022-07-31T04:16:39.310Z,52.50
2022-07-31T04:19:06.722Z,52.22
2022-07-31T04:21:34.370Z,52.36
2022-07-31T04:24:01.805Z,52.41
2022-07-31T04:26:50.625Z,51.50
2022-07-31T04:29:18.561Z,51.87
2022-07-31T04:31:46.345Z,51.58
2022-07-31T04:34:22.492Z,51.16
2022-07-31T04:36:50.205Z,51.15
2022-07-31T04:39:17.760Z,51.37
2022-07-31T04:41:45.176Z,51.80
2022-07-31T04:44:12.574Z,51.39
2022-07-31T04:47:00.615Z,51.47
2022-07-31T04:49:29.107Z,51.74
2022-07-31T04:51:57.806Z,51.08
2022-07-31T04:54:25.502Z,50.96
2022-07-31T04:56:53.222Z,50.72
2022-07-31T04:59:21.636Z,51.20
2022-07-31T05:01:50.263Z,51.67
2022-07-31T05:04:21.583Z,51.19
2022-07-31T05:06:50.351Z,51.70
2022-07-31T05:09:19.671Z,51.67
2022-07-31T05:11:55.297Z,51.76
2022-07-31T05:14:23.159Z,52.31
2022-07-31T05:16:50.589Z,52.69
2022-07-31T05:19:18.603Z,53.18
2022-07-31T05:21:53.656Z,52.83
2022-07-31T05:24:32.708Z,52.82
2022-07-31T05:27:09.935Z,53.88
2022-07-31T05:29:37.936Z,53.64
2022-07-31T05:32:05.512Z,54.46
2022-07-31T05:34:34.269Z,54.11
2022-07-31T05:37:02.057Z,54.12
2022-07-31T05:39:31.546Z,54.37
2022-07-31T05:42:17.395Z,54.00
2022-07-31T05:44:59.879Z,53.65
2022-07-31T05:47:40.438Z,53.45
2022-07-31T05:50:09.728Z,53.51
2022-07-31T05:52:37.282Z,53.30
2022-07-31T05:55:27.504Z,52.63
2022-07-31T05:58:08.562Z,52.39
2022-07-31T06:00:36.051Z,51.64
2022-07-31T06:03:04.021Z,51.05
2022-07-31T06:05:50.750Z,50.66
2022-07-31T06:08:18.385Z,50.03
2022-07-31T06:10:48.510Z,49.71
2022-07-31T06:13:16.057Z,50.48
2022-07-31T06:15:49.569Z,50.77
2022-07-31T06:18:17.518Z,50.39
2022-07-31T06:20:45.077Z,50.06
2022-07-31T06:23:19.823Z,49.79
2022-07-31T06:25:53.905Z,49.81
2022-07-31T06:28:27.279Z,47.78
2022-07-31T06:31:09.369Z,47.99
2022-07-31T06:33:37.995Z,47.98
2022-07-31T06:36:05.944Z,47.86
2022-07-31T06:38:41.695Z,47.99
2022-07-31T06:41:47.602Z,47.63
2022-07-31T06:44:30.908Z,43.42
2022-07-31T06:47:21.082Z,38.50
2022-07-31T06:50:11.289Z,35.72
2022-07-31T06:52:48.750Z,33.52
2022-07-31T06:55:16.345Z,33.99
2022-07-31T06:57:43.753Z,33.85
2022-07-31T07:00:19.638Z,34.67
2022-07-31T07:02:51.099Z,32.44
2022-07-31T07:05:18.546Z,32.45
2022-07-31T07:07:50.107Z,31.67
2022-07-31T07:10:18.016Z,31.10
2022-07-31T07:13:00.535Z,31.48
2022-07-31T07:15:32.189Z,30.48
2022-07-31T07:18:00.214Z,29.86
2022-07-31T07:20:43.201Z,31.38
2022-07-31T07:23:10.660Z,29.76
2022-07-31T07:25:46.812Z,31.86
2022-07-31T07:28:30.383Z,31.79
2022-07-31T07:30:59.360Z,31.04
2022-07-31T07:33:41.766Z,31.23
2022-07-31T07:36:23.180Z,29.68
2022-07-31T07:38:56.520Z,31.18
2022-07-31T07:41:25.231Z,32.32
2022-07-31T07:43:53.234Z,32.43
2022-07-31T07:46:23.678Z,31.69
2022-07-31T07:48:54.481Z,31.24
2022-07-31T07:51:59.725Z,32.46
2022-07-31T07:54:39.087Z,32.32
2022-07-31T07:57:17.224Z,31.99
2022-07-31T08:00:07.050Z,29.58
2022-07-31T08:03:47.054Z,30.67
2022-07-31T08:05:44.882Z,31.92
2022-07-31T08:08:12.720Z,31.27
2022-07-31T08:11:04.943Z,30.15
2022-07-31T08:13:53.038Z,29.47
2022-07-31T08:16:38.929Z,30.00
2022-07-31T08:19:07.099Z,30.61
2022-07-31T08:21:35.926Z,31.06
2022-07-31T08:24:04.606Z,30.19
2022-07-31T08:26:52.039Z,29.04
2022-07-31T08:29:19.330Z,28.37
2022-07-31T08:32:07.351Z,29.49
2022-07-31T08:35:07.577Z,32.30
2022-07-31T08:37:52.242Z,32.71
2022-07-31T08:40:23.100Z,29.46
2022-07-31T08:42:50.640Z,29.34
2022-07-31T08:45:17.956Z,29.35
2022-07-31T08:47:54.386Z,28.02
2022-07-31T08:50:27.388Z,32.21
2022-07-31T08:52:54.807Z,30.63
2022-07-31T08:55:56.992Z,29.72
2022-07-31T08:58:19.270Z,30.68
2022-07-31T09:00:46.821Z,30.17
2022-07-31T09:03:14.728Z,30.31
2022-07-31T09:05:51.605Z,33.94
2022-07-31T09:08:19.037Z,34.95
2022-07-31T09:10:50.367Z,35.96
2022-07-31T09:13:19.335Z,36.24
2022-07-31T09:15:48.594Z,35.93
2022-07-31T09:18:22.182Z,37.21
2022-07-31T09:21:02.967Z,36.20
2022-07-31T09:23:30.706Z,36.85
2022-07-31T09:26:00.577Z,37.43
2022-07-31T09:28:35.177Z,36.78
2022-07-31T09:31:04.070Z,37.03
2022-07-31T09:33:51.584Z,36.23
2022-07-31T09:36:48.097Z,35.98
2022-07-31T09:39:36.296Z,36.02
2022-07-31T09:42:23.521Z,35.83
2022-07-31T09:45:03.357Z,36.83
2022-07-31T09:47:32.786Z,35.79
2022-07-31T09:50:05.465Z,35.82
2022-07-31T09:52:34.239Z,35.15
2022-07-31T09:55:15.722Z,35.77
2022-07-31T09:57:54.500Z,36.05
2022-07-31T10:00:23.287Z,36.44
2022-07-31T10:02:57.837Z,36.58
2022-07-31T10:05:27.393Z,35.14
2022-07-31T10:07:58.024Z,34.73
2022-07-31T10:10:44.404Z,34.11
2022-07-31T10:13:27.035Z,33.74
2022-07-31T10:15:56.256Z,34.24
2022-07-31T10:18:44.659Z,34.64
2022-07-31T10:21:38.737Z,34.25
2022-07-31T10:24:16.904Z,34.57
2022-07-31T10:27:00.384Z,33.53
2022-07-31T10:29:32.312Z,34.02
2022-07-31T10:32:01.581Z,34.29
2022-07-31T10:34:29.462Z,34.88
2022-07-31T10:37:39.919Z,34.93
2022-07-31T10:40:37.965Z,33.63
2022-07-31T10:43:24.708Z,33.75
2022-07-31T10:46:32.235Z,34.04
2022-07-31T10:49:41.610Z,33.59
2022-07-31T10:52:37.575Z,33.46
2022-07-31T10:55:18.645Z,32.74
2022-07-31T10:58:16.964Z,32.32
2022-07-31T11:01:06.979Z,32.47
2022-07-31T11:04:02.791Z,33.17
2022-07-31T11:06:42.074Z,32.69
2022-07-31T11:09:28.887Z,33.63
2022-07-31T11:12:26.161Z,32.33
2022-07-31T11:15:21.597Z,32.59
2022-07-31T11:18:22.057Z,33.46
2022-07-31T11:21:35.818Z,34.49
2022-07-31T11:24:03.008Z,35.39
2022-07-31T11:26:42.094Z,33.99
2022-07-31T11:29:59.208Z,33.21
2022-07-31T11:32:00.847Z,33.23
2022-07-31T11:34:28.191Z,31.95
2022-07-31T11:36:55.771Z,32.26
2022-07-31T11:39:29.655Z,33.59
2022-07-31T11:42:07.433Z,33.92
2022-07-31T11:44:35.771Z,33.41
2022-07-31T11:47:03.700Z,34.36
2022-07-31T11:50:00.844Z,34.80
2022-07-31T11:52:30.785Z,34.30
2022-07-31T11:55:09.648Z,34.52
2022-07-31T11:57:52.156Z,35.21
2022-07-31T12:00:26.243Z,36.10
2022-07-31T12:02:58.113Z,35.22
2022-07-31T12:05:38.036Z,34.22
2022-07-31T12:08:08.000Z,34.99
2022-07-31T12:10:35.593Z,34.57
2022-07-31T12:13:02.983Z,33.79
2022-07-31T12:15:30.936Z,33.16
2022-07-31T12:18:02.916Z,33.06
2022-07-31T12:20:36.027Z,33.43
2022-07-31T12:23:05.578Z,33.02
2022-07-31T12:25:42.879Z,34.05
2022-07-31T12:28:10.458Z,33.51
2022-07-31T12:30:37.911Z,35.11
2022-07-31T12:33:06.649Z,35.18
2022-07-31T12:35:55.706Z,34.89
2022-07-31T12:38:47.851Z,36.46
2022-07-31T12:41:15.292Z,35.96
2022-07-31T12:43:50.199Z,35.73
2022-07-31T12:46:21.309Z,35.90
2022-07-31T12:48:48.676Z,35.79
2022-07-31T12:51:18.805Z,34.97
2022-07-31T12:53:47.658Z,34.24
2022-07-31T12:56:15.020Z,33.46
2022-07-31T12:58:42.741Z,33.75
2022-07-31T13:01:10.057Z,33.92
2022-07-31T13:03:45.678Z,33.74
2022-07-31T13:06:14.368Z,34.21
2022-07-31T13:08:43.943Z,33.14
2022-07-31T13:11:11.533Z,33.88
2022-07-31T13:13:39.175Z,34.44
2022-07-31T13:16:06.656Z,33.61
2022-07-31T13:18:35.747Z,32.78
2022-07-31T13:21:03.106Z,32.52
2022-07-31T13:23:30.575Z,33.15
2022-07-31T13:25:59.161Z,32.20
2022-07-31T13:28:26.854Z,31.54
2022-07-31T13:30:55.348Z,32.72
2022-07-31T13:33:22.756Z,33.46
2022-07-31T13:35:50.319Z,33.82
2022-07-31T13:38:17.675Z,33.99
2022-07-31T13:41:03.768Z,33.92
2022-07-31T13:43:31.229Z,32.83
2022-07-31T13:45:58.570Z,32.73
2022-07-31T13:48:26.008Z,31.88
2022-07-31T13:50:53.281Z,32.41
2022-07-31T13:53:20.667Z,31.76
2022-07-31T13:55:50.231Z,32.78
2022-07-31T13:58:17.943Z,32.78
2022-07-31T14:00:45.532Z,32.64
2022-07-31T14:03:15.262Z,33.07
2022-07-31T14:05:45.788Z,32.40
2022-07-31T14:08:32.741Z,32.60
2022-07-31T14:11:02.654Z,32.88
2022-07-31T14:13:30.220Z,32.91
2022-07-31T14:15:57.724Z,32.64
2022-07-31T14:18:25.121Z,32.85
2022-07-31T14:20:52.507Z,33.12
2022-07-31T14:23:21.028Z,31.86
2022-07-31T14:26:03.061Z,32.20
2022-07-31T14:28:30.433Z,32.16
2022-07-31T14:30:57.901Z,32.13
2022-07-31T14:33:25.432Z,31.89
2022-07-31T14:35:53.323Z,32.31
2022-07-31T14:38:27.080Z,32.88
2022-07-31T14:40:55.292Z,34.00
2022-07-31T14:43:22.639Z,33.99
2022-07-31T14:45:51.774Z,32.68
2022-07-31T14:48:19.417Z,32.86
2022-07-31T14:50:46.705Z,33.18
2022-07-31T14:53:14.001Z,33.73
2022-07-31T14:55:41.597Z,32.77
2022-07-31T14:58:09.042Z,33.42
2022-07-31T15:00:36.643Z,32.98
2022-07-31T15:03:04.052Z,33.58
2022-07-31T15:06:50.835Z,33.50
2022-07-31T15:08:19.136Z,34.45
2022-07-31T15:10:46.736Z,33.53
2022-07-31T15:13:14.254Z,32.90
2022-07-31T15:15:41.649Z,33.96
2022-07-31T15:18:09.077Z,33.14
2022-07-31T15:20:36.722Z,33.42
2022-07-31T15:23:04.158Z,33.29
2022-07-31T15:25:31.685Z,33.31
2022-07-31T15:27:59.005Z,33.87
2022-07-31T15:30:26.481Z,33.96
2022-07-31T15:32:53.853Z,33.99
2022-07-31T15:35:21.440Z,33.02
2022-07-31T15:37:49.858Z,33.13
2022-07-31T15:40:17.427Z,32.36
2022-07-31T15:42:45.811Z,33.11
2022-07-31T15:45:17.839Z,33.28
2022-07-31T15:47:45.270Z,33.47
2022-07-31T15:50:14.387Z,33.53
2022-07-31T15:52:41.834Z,34.66
2022-07-31T15:55:09.657Z,34.89
2022-07-31T15:57:36.976Z,34.83
2022-07-31T16:00:05.896Z,33.85
2022-07-31T16:02:38.172Z,34.45
2022-07-31T16:05:11.992Z,34.73
2022-07-31T16:08:31.559Z,35.31
2022-07-31T16:10:36.831Z,35.50
2022-07-31T16:13:04.339Z,35.35
2022-07-31T16:15:32.353Z,34.98
2022-07-31T16:17:59.872Z,35.03
2022-07-31T16:20:27.487Z,35.00
2022-07-31T16:22:56.714Z,34.42
2022-07-31T16:25:24.831Z,35.24
2022-07-31T16:27:52.194Z,34.93
2022-07-31T16:30:19.757Z,35.21
2022-07-31T16:32:47.052Z,35.10
2022-07-31T16:35:14.604Z,35.22
2022-07-31T16:37:51.654Z,35.68
2022-07-31T16:40:29.041Z,35.53
2022-07-31T16:43:46.661Z,35.02
2022-07-31T16:45:50.840Z,35.88
2022-07-31T16:48:18.148Z,36.02
2022-07-31T16:50:48.117Z,35.90
2022-07-31T16:54:10.517Z,36.48
2022-07-31T16:56:03.584Z,37.19
2022-07-31T16:58:30.856Z,37.30
2022-07-31T17:00:58.757Z,37.26
2022-07-31T17:03:58.425Z,37.40
2022-07-31T17:06:13.956Z,36.86
2022-07-31T17:08:44.123Z,37.54
2022-07-31T17:11:12.701Z,37.53
2022-07-31T17:13:39.952Z,37.52
2022-07-31T17:16:07.464Z,38.08
2022-07-31T17:18:34.801Z,38.20
2022-07-31T17:21:02.404Z,38.70
2022-07-31T17:23:44.243Z,39.05
2022-07-31T17:26:21.322Z,39.18
2022-07-31T17:28:50.771Z,38.07
2022-07-31T17:31:19.255Z,37.48
2022-07-31T17:33:54.876Z,37.37
2022-07-31T17:36:29.185Z,37.04
2022-07-31T17:38:57.396Z,37.36
2022-07-31T17:41:26.022Z,37.44
2022-07-31T17:43:56.612Z,37.74
2022-07-31T17:46:34.703Z,37.44
2022-07-31T17:49:06.146Z,37.63
2022-07-31T17:51:33.650Z,37.16
2022-07-31T17:54:01.173Z,37.50
2022-07-31T17:56:29.117Z,37.95
2022-07-31T17:59:03.849Z,37.41
2022-07-31T18:01:32.710Z,37.29
2022-07-31T18:04:00.501Z,37.38
2022-07-31T18:06:28.068Z,37.32
2022-07-31T18:08:55.357Z,37.54
2022-07-31T18:11:22.765Z,38.25
2022-07-31T18:13:51.716Z,37.88
2022-07-31T18:16:23.869Z,37.66
2022-07-31T18:18:54.294Z,37.85
2022-07-31T18:21:22.057Z,38.78
2022-07-31T18:23:49.527Z,38.33
2022-07-31T18:26:17.090Z,38.37
2022-07-31T18:28:44.628Z,38.46
2022-07-31T18:31:32.300Z,38.55
2022-07-31T18:33:59.323Z,38.79
2022-07-31T18:36:27.281Z,38.76
2022-07-31T18:38:54.716Z,39.03
2022-07-31T18:41:22.034Z,39.52
2022-07-31T18:43:49.513Z,39.33
2022-07-31T18:46:17.011Z,39.47
2022-07-31T18:48:44.335Z,39.64
2022-07-31T18:51:11.717Z,39.45
2022-07-31T18:53:39.176Z,39.74
2022-07-31T18:56:06.520Z,39.54
2022-07-31T18:58:33.884Z,39.85
2022-07-31T19:01:01.434Z,39.95
2022-07-31T19:03:30.851Z,39.81
2022-07-31T19:05:58.835Z,40.08
2022-07-31T19:08:26.369Z,40.20
2022-07-31T19:10:53.887Z,40.47
2022-07-31T19:13:21.867Z,40.49
2022-07-31T19:15:53.211Z,41.71
2022-07-31T19:18:27.002Z,42.21
2022-07-31T19:21:17.773Z,42.48
2022-07-31T19:23:47.057Z,41.84
2022-07-31T19:26:14.427Z,42.32
2022-07-31T19:28:43.449Z,42.74
2022-07-31T19:31:11.691Z,42.85
2022-07-31T19:33:39.498Z,43.22
2022-07-31T19:36:07.371Z,41.84
2022-07-31T19:38:36.036Z,42.83
2022-07-31T19:41:03.691Z,42.79
2022-07-31T19:43:31.106Z,42.12
2022-07-31T19:46:10.346Z,41.84
2022-07-31T19:48:43.470Z,42.24
2022-07-31T19:51:11.601Z,42.52
2022-07-31T19:53:39.480Z,43.11
2022-07-31T19:56:07.148Z,43.03
2022-07-31T19:58:35.237Z,43.17
2022-07-31T20:01:03.931Z,43.48
2022-07-31T20:03:31.581Z,43.95
2022-07-31T20:05:59.012Z,44.68
2022-07-31T20:08:26.363Z,45.01
2022-07-31T20:10:59.653Z,45.55
2022-07-31T20:13:28.150Z,45.93
2022-07-31T20:15:55.454Z,46.28
2022-07-31T20:18:29.580Z,46.43
2022-07-31T20:21:04.912Z,46.48
2022-07-31T20:23:34.535Z,46.61
2022-07-31T20:26:02.103Z,46.65
2022-07-31T20:28:29.394Z,46.71
2022-07-31T20:30:56.867Z,46.82
2022-07-31T20:33:24.297Z,46.92
2022-07-31T20:35:51.775Z,46.87
2022-07-31T20:38:19.789Z,46.78
2022-07-31T20:40:53.667Z,46.81
2022-07-31T20:43:23.731Z,46.78
2022-07-31T20:45:51.507Z,47.07
2022-07-31T20:48:19.171Z,47.09
2022-07-31T20:50:47.897Z,47.25
2022-07-31T20:53:19.611Z,46.92
2022-07-31T20:55:49.609Z,47.15
2022-07-31T20:58:18.720Z,47.04
2022-07-31T21:00:47.791Z,47.17
2022-07-31T21:03:15.886Z,47.56
2022-07-31T21:05:43.763Z,47.61
2022-07-31T21:08:11.377Z,47.90
2022-07-31T21:10:38.834Z,48.44
2022-07-31T21:13:06.187Z,48.26
2022-07-31T21:15:43.410Z,47.81
2022-07-31T21:18:13.409Z,47.79
2022-07-31T21:20:51.874Z,47.95
2022-07-31T21:23:22.817Z,48.31
2022-07-31T21:25:54.797Z,48.27
2022-07-31T21:28:22.657Z,48.09
2022-07-31T21:30:50.329Z,48.35
2022-07-31T21:33:18.371Z,48.45
2022-07-31T21:35:46.701Z,47.97
2022-07-31T21:38:16.865Z,48.12
2022-07-31T21:40:44.428Z,48.80
2022-07-31T21:43:15.461Z,48.23
2022-07-31T21:45:55.808Z,48.09
2022-07-31T21:48:29.394Z,48.19
2022-07-31T21:50:57.105Z,48.36
2022-07-31T21:53:24.532Z,48.41
2022-07-31T21:55:52.095Z,48.70
2022-07-31T21:58:19.406Z,48.94
2022-07-31T22:00:46.913Z,49.39
2022-07-31T22:03:14.450Z,50.01
2022-07-31T22:06:00.354Z,50.92
2022-07-31T22:08:27.774Z,51.02
2022-07-31T22:10:55.097Z,51.11
2022-07-31T22:13:22.386Z,51.21
2022-07-31T22:15:58.080Z,51.53
2022-07-31T22:18:27.693Z,51.11
2022-07-31T22:20:55.115Z,51.26
2022-07-31T22:23:23.621Z,51.58
2022-07-31T22:25:50.995Z,51.42
2022-07-31T22:28:19.789Z,51.34
2022-07-31T22:30:47.414Z,51.20
2022-07-31T22:33:14.956Z,51.16
2022-07-31T22:35:42.354Z,51.51
2022-07-31T22:38:11.294Z,51.72
2022-07-31T22:40:38.790Z,51.76
2022-07-31T22:43:47.322Z,51.67
2022-07-31T22:45:55.093Z,51.42
2022-07-31T22:48:23.053Z,51.62
2022-07-31T22:50:50.465Z,51.40
2022-07-31T22:53:17.783Z,51.02
2022-07-31T22:55:45.067Z,50.96
2022-07-31T22:58:15.283Z,50.89
2022-07-31T23:00:42.793Z,50.99
2022-07-31T23:03:10.061Z,50.86
2022-07-31T23:06:02.793Z,50.90
2022-07-31T23:08:25.013Z,50.78
2022-07-31T23:10:52.434Z,50.83
2022-07-31T23:13:19.849Z,51.16
2022-07-31T23:15:47.188Z,51.16
2022-07-31T23:18:14.542Z,51.19
2022-07-31T23:20:41.885Z,51.16
2022-07-31T23:23:09.205Z,51.04
2022-07-31T23:25:36.651Z,51.06
2022-07-31T23:28:04.128Z,50.93
2022-07-31T23:30:31.471Z,50.93
2022-07-31T23:32:58.856Z,51.17
2022-07-31T23:35:26.283Z,50.90
2022-07-31T23:37:53.597Z,51.15
2022-07-31T23:40:21.074Z,51.26
2022-07-31T23:42:48.709Z,51.25
2022-07-31T23:45:16.266Z,51.39
2022-07-31T23:47:45.811Z,51.33
2022-07-31T23:50:15.143Z,51.24
2022-07-31T23:52:43.281Z,51.18
2022-07-31T23:55:10.798Z,51.38
2022-07-31T23:57:38.627Z,51.52
